sensor_id;sensor_type;location;lat;lon;timestamp;P1;durP1;ratioP1;P2;durP2;ratioP2
4232;SDS011;2130;48.472;11.934;2023-04-06T00:02:41;36.20;;;2.23;;
4232;SDS011;2130;48.472;11.934;2023-04-06T00:05:29;30.40;;;2.60;;
4232;SDS011;2130;48.472;11.934;2023-04-06T00:08:19;29.43;;;2.30;;
4232;SDS011;2130;48.472;11.934;2023-04-06T00:11:10;29.10;;;2.13;;
4232;SDS011;2130;48.472;11.934;2023-04-06T00:14:00;28.87;;;1.77;;
4232;SDS011;2130;48.472;11.934;2023-04-06T00:16:48;32.07;;;2.60;;
4232;SDS011;2130;48.472;11.934;2023-04-06T00:19:37;28.83;;;1.83;;
4232;SDS011;2130;48.472;11.934;2023-04-06T00:22:25;29.23;;;1.80;;
4232;SDS011;2130;48.472;11.934;2023-04-06T00:25:15;29.60;;;2.10;;
4232;SDS011;2130;48.472;11.934;2023-04-06T00:28:04;29.43;;;2.40;;
4232;SDS011;2130;48.472;11.934;2023-04-06T00:30:52;29.53;;;2.10;;
4232;SDS011;2130;48.472;11.934;2023-04-06T00:33:42;28.50;;;1.70;;
4232;SDS011;2130;48.472;11.934;2023-04-06T00:36:30;29.27;;;1.93;;
4232;SDS011;2130;48.472;11.934;2023-04-06T00:39:19;28.17;;;2.00;;
4232;SDS011;2130;48.472;11.934;2023-04-06T00:42:10;29.70;;;2.00;;
4232;SDS011;2130;48.472;11.934;2023-04-06T00:45:00;29.40;;;2.20;;
4232;SDS011;2130;48.472;11.934;2023-04-06T00:47:49;30.50;;;2.00;;
4232;SDS011;2130;48.472;11.934;2023-04-06T00:50:38;29.00;;;2.00;;
4232;SDS011;2130;48.472;11.934;2023-04-06T00:53:27;30.20;;;2.17;;
4232;SDS011;2130;48.472;11.934;2023-04-06T00:56:16;28.67;;;2.13;;
4232;SDS011;2130;48.472;11.934;2023-04-06T00:59:12;28.03;;;1.70;;
4232;SDS011;2130;48.472;11.934;2023-04-06T01:02:01;28.43;;;1.93;;
4232;SDS011;2130;48.472;11.934;2023-04-06T01:04:55;28.30;;;1.90;;
4232;SDS011;2130;48.472;11.934;2023-04-06T01:07:55;28.27;;;2.00;;
4232;SDS011;2130;48.472;11.934;2023-04-06T01:10:47;28.10;;;2.00;;
4232;SDS011;2130;48.472;11.934;2023-04-06T01:13:44;28.83;;;2.10;;
4232;SDS011;2130;48.472;11.934;2023-04-06T01:16:45;27.70;;;1.90;;
4232;SDS011;2130;48.472;11.934;2023-04-06T01:19:37;29.07;;;2.53;;
4232;SDS011;2130;48.472;11.934;2023-04-06T01:22:30;28.00;;;2.10;;
4232;SDS011;2130;48.472;11.934;2023-04-06T01:25:22;32.20;;;2.57;;
4232;SDS011;2130;48.472;11.934;2023-04-06T01:28:21;28.03;;;1.93;;
4232;SDS011;2130;48.472;11.934;2023-04-06T01:31:18;28.30;;;2.20;;
4232;SDS011;2130;48.472;11.934;2023-04-06T01:34:10;27.50;;;1.73;;
4232;SDS011;2130;48.472;11.934;2023-04-06T01:36:59;29.20;;;2.60;;
4232;SDS011;2130;48.472;11.934;2023-04-06T01:39:51;28.90;;;2.20;;
4232;SDS011;2130;48.472;11.934;2023-04-06T01:42:51;29.00;;;2.47;;
4232;SDS011;2130;48.472;11.934;2023-04-06T01:45:48;26.90;;;1.50;;
4232;SDS011;2130;48.472;11.934;2023-04-06T01:48:40;28.50;;;2.40;;
4232;SDS011;2130;48.472;11.934;2023-04-06T01:51:36;27.40;;;2.10;;
4232;SDS011;2130;48.472;11.934;2023-04-06T01:54:28;28.07;;;2.10;;
4232;SDS011;2130;48.472;11.934;2023-04-06T01:57:38;27.43;;;2.20;;
4232;SDS011;2130;48.472;11.934;2023-04-06T02:01:10;26.67;;;2.03;;
4232;SDS011;2130;48.472;11.934;2023-04-06T02:04:10;26.90;;;2.03;;
4232;SDS011;2130;48.472;11.934;2023-04-06T02:07:01;27.13;;;2.40;;
4232;SDS011;2130;48.472;11.934;2023-04-06T02:09:53;27.30;;;2.30;;
4232;SDS011;2130;48.472;11.934;2023-04-06T02:12:49;28.47;;;2.13;;
4232;SDS011;2130;48.472;11.934;2023-04-06T02:15:43;28.00;;;2.40;;
4232;SDS011;2130;48.472;11.934;2023-04-06T02:18:32;26.13;;;1.67;;
4232;SDS011;2130;48.472;11.934;2023-04-06T02:21:20;27.30;;;2.10;;
4232;SDS011;2130;48.472;11.934;2023-04-06T02:24:08;29.07;;;2.70;;
4232;SDS011;2130;48.472;11.934;2023-04-06T02:26:57;39.07;;;2.77;;
4232;SDS011;2130;48.472;11.934;2023-04-06T02:29:47;27.00;;;1.73;;
4232;SDS011;2130;48.472;11.934;2023-04-06T02:32:39;26.60;;;1.90;;
4232;SDS011;2130;48.472;11.934;2023-04-06T02:35:28;28.40;;;2.00;;
4232;SDS011;2130;48.472;11.934;2023-04-06T02:38:17;28.47;;;2.23;;
4232;SDS011;2130;48.472;11.934;2023-04-06T02:41:05;27.40;;;2.00;;
4232;SDS011;2130;48.472;11.934;2023-04-06T02:43:54;28.77;;;2.40;;
4232;SDS011;2130;48.472;11.934;2023-04-06T02:46:55;27.90;;;2.07;;
4232;SDS011;2130;48.472;11.934;2023-04-06T02:49:45;27.20;;;1.87;;
4232;SDS011;2130;48.472;11.934;2023-04-06T02:52:35;27.47;;;2.33;;
4232;SDS011;2130;48.472;11.934;2023-04-06T02:55:24;27.27;;;2.20;;
4232;SDS011;2130;48.472;11.934;2023-04-06T02:58:12;27.70;;;2.57;;
4232;SDS011;2130;48.472;11.934;2023-04-06T03:01:08;31.80;;;2.37;;
4232;SDS011;2130;48.472;11.934;2023-04-06T03:03:59;27.53;;;2.43;;
4232;SDS011;2130;48.472;11.934;2023-04-06T03:06:48;27.00;;;2.20;;
4232;SDS011;2130;48.472;11.934;2023-04-06T03:09:48;26.37;;;2.30;;
4232;SDS011;2130;48.472;11.934;2023-04-06T03:12:37;27.77;;;2.17;;
4232;SDS011;2130;48.472;11.934;2023-04-06T03:15:46;26.27;;;1.97;;
4232;SDS011;2130;48.472;11.934;2023-04-06T03:18:37;28.33;;;2.40;;
4232;SDS011;2130;48.472;11.934;2023-04-06T03:21:27;27.47;;;2.00;;
4232;SDS011;2130;48.472;11.934;2023-04-06T03:24:16;27.23;;;2.47;;
4232;SDS011;2130;48.472;11.934;2023-04-06T03:27:04;27.67;;;2.00;;
4232;SDS011;2130;48.472;11.934;2023-04-06T03:29:53;27.30;;;2.07;;
4232;SDS011;2130;48.472;11.934;2023-04-06T03:32:49;26.33;;;1.90;;
4232;SDS011;2130;48.472;11.934;2023-04-06T03:35:39;28.67;;;2.43;;
4232;SDS011;2130;48.472;11.934;2023-04-06T03:38:29;26.47;;;1.73;;
4232;SDS011;2130;48.472;11.934;2023-04-06T03:41:17;27.87;;;2.27;;
4232;SDS011;2130;48.472;11.934;2023-04-06T03:44:14;27.43;;;2.37;;
4232;SDS011;2130;48.472;11.934;2023-04-06T03:47:04;32.13;;;2.43;;
4232;SDS011;2130;48.472;11.934;2023-04-06T03:49:52;27.50;;;2.60;;
4232;SDS011;2130;48.472;11.934;2023-04-06T03:52:40;29.70;;;1.93;;
4232;SDS011;2130;48.472;11.934;2023-04-06T03:55:30;27.37;;;2.40;;
4232;SDS011;2130;48.472;11.934;2023-04-06T03:58:19;27.97;;;2.40;;
4232;SDS011;2130;48.472;11.934;2023-04-06T04:01:08;28.17;;;2.63;;
4232;SDS011;2130;48.472;11.934;2023-04-06T04:03:56;27.17;;;2.40;;
4232;SDS011;2130;48.472;11.934;2023-04-06T04:06:45;27.27;;;2.43;;
4232;SDS011;2130;48.472;11.934;2023-04-06T04:09:33;26.10;;;2.00;;
4232;SDS011;2130;48.472;11.934;2023-04-06T04:12:23;26.13;;;1.93;;
4232;SDS011;2130;48.472;11.934;2023-04-06T04:15:12;27.37;;;2.30;;
4232;SDS011;2130;48.472;11.934;2023-04-06T04:18:00;26.30;;;2.40;;
4232;SDS011;2130;48.472;11.934;2023-04-06T04:20:49;25.57;;;1.80;;
4232;SDS011;2130;48.472;11.934;2023-04-06T04:23:39;26.20;;;2.20;;
4232;SDS011;2130;48.472;11.934;2023-04-06T04:26:27;27.70;;;2.50;;
4232;SDS011;2130;48.472;11.934;2023-04-06T04:29:17;25.97;;;2.20;;
4232;SDS011;2130;48.472;11.934;2023-04-06T04:32:09;24.90;;;1.90;;
4232;SDS011;2130;48.472;11.934;2023-04-06T04:34:58;26.37;;;2.47;;
4232;SDS011;2130;48.472;11.934;2023-04-06T04:38:00;25.50;;;2.47;;
4232;SDS011;2130;48.472;11.934;2023-04-06T04:40:49;25.20;;;2.10;;
4232;SDS011;2130;48.472;11.934;2023-04-06T04:43:38;25.50;;;1.80;;
4232;SDS011;2130;48.472;11.934;2023-04-06T04:46:28;25.23;;;2.10;;
4232;SDS011;2130;48.472;11.934;2023-04-06T04:49:16;26.17;;;2.50;;
4232;SDS011;2130;48.472;11.934;2023-04-06T04:52:05;24.67;;;2.33;;
4232;SDS011;2130;48.472;11.934;2023-04-06T04:55:06;25.20;;;2.30;;
4232;SDS011;2130;48.472;11.934;2023-04-06T04:57:55;25.13;;;2.00;;
4232;SDS011;2130;48.472;11.934;2023-04-06T05:01:01;25.10;;;2.00;;
4232;SDS011;2130;48.472;11.934;2023-04-06T05:03:51;24.23;;;1.80;;
4232;SDS011;2130;48.472;11.934;2023-04-06T05:06:40;25.17;;;1.80;;
4232;SDS011;2130;48.472;11.934;2023-04-06T05:09:29;24.47;;;1.80;;
4232;SDS011;2130;48.472;11.934;2023-04-06T05:12:18;25.30;;;1.97;;
4232;SDS011;2130;48.472;11.934;2023-04-06T05:15:20;25.07;;;2.10;;
4232;SDS011;2130;48.472;11.934;2023-04-06T05:18:13;24.97;;;2.23;;
4232;SDS011;2130;48.472;11.934;2023-04-06T05:21:03;26.00;;;2.43;;
4232;SDS011;2130;48.472;11.934;2023-04-06T05:24:09;26.50;;;2.63;;
4232;SDS011;2130;48.472;11.934;2023-04-06T05:26:59;24.67;;;2.13;;
4232;SDS011;2130;48.472;11.934;2023-04-06T05:29:47;25.53;;;2.37;;
4232;SDS011;2130;48.472;11.934;2023-04-06T05:32:37;24.90;;;2.80;;
4232;SDS011;2130;48.472;11.934;2023-04-06T05:35:25;24.90;;;1.90;;
4232;SDS011;2130;48.472;11.934;2023-04-06T05:38:20;25.80;;;2.33;;
4232;SDS011;2130;48.472;11.934;2023-04-06T05:41:09;26.07;;;3.03;;
4232;SDS011;2130;48.472;11.934;2023-04-06T05:44:00;26.23;;;2.67;;
4232;SDS011;2130;48.472;11.934;2023-04-06T05:46:49;25.17;;;2.20;;
4232;SDS011;2130;48.472;11.934;2023-04-06T05:49:38;25.40;;;2.60;;
4232;SDS011;2130;48.472;11.934;2023-04-06T05:52:31;26.73;;;3.00;;
4232;SDS011;2130;48.472;11.934;2023-04-06T05:55:21;24.90;;;2.20;;
4232;SDS011;2130;48.472;11.934;2023-04-06T05:58:18;27.47;;;2.80;;
4232;SDS011;2130;48.472;11.934;2023-04-06T06:01:09;25.90;;;2.70;;
4232;SDS011;2130;48.472;11.934;2023-04-06T06:04:01;26.60;;;3.30;;
4232;SDS011;2130;48.472;11.934;2023-04-06T06:06:52;25.43;;;2.13;;
4232;SDS011;2130;48.472;11.934;2023-04-06T06:09:47;26.07;;;2.67;;
4232;SDS011;2130;48.472;11.934;2023-04-06T06:12:47;26.07;;;2.40;;
4232;SDS011;2130;48.472;11.934;2023-04-06T06:15:36;26.57;;;2.80;;
4232;SDS011;2130;48.472;11.934;2023-04-06T06:18:25;27.80;;;2.50;;
4232;SDS011;2130;48.472;11.934;2023-04-06T06:21:15;25.80;;;2.37;;
4232;SDS011;2130;48.472;11.934;2023-04-06T06:24:04;26.77;;;2.53;;
4232;SDS011;2130;48.472;11.934;2023-04-06T06:26:53;26.70;;;3.10;;
4232;SDS011;2130;48.472;11.934;2023-04-06T06:29:47;26.00;;;2.00;;
4232;SDS011;2130;48.472;11.934;2023-04-06T06:32:35;25.50;;;1.83;;
4232;SDS011;2130;48.472;11.934;2023-04-06T06:35:24;26.77;;;2.10;;
4232;SDS011;2130;48.472;11.934;2023-04-06T06:38:12;28.90;;;2.23;;
4232;SDS011;2130;48.472;11.934;2023-04-06T06:41:01;29.57;;;2.57;;
4232;SDS011;2130;48.472;11.934;2023-04-06T06:43:52;43.83;;;3.00;;
4232;SDS011;2130;48.472;11.934;2023-04-06T06:46:42;28.50;;;2.87;;
4232;SDS011;2130;48.472;11.934;2023-04-06T06:49:30;26.60;;;1.87;;
4232;SDS011;2130;48.472;11.934;2023-04-06T06:52:18;26.60;;;2.00;;
4232;SDS011;2130;48.472;11.934;2023-04-06T06:55:07;28.00;;;2.60;;
4232;SDS011;2130;48.472;11.934;2023-04-06T06:57:57;26.40;;;2.20;;
4232;SDS011;2130;48.472;11.934;2023-04-06T07:00:46;27.97;;;2.53;;
4232;SDS011;2130;48.472;11.934;2023-04-06T07:03:36;29.50;;;3.00;;
4232;SDS011;2130;48.472;11.934;2023-04-06T07:06:25;28.17;;;2.50;;
4232;SDS011;2130;48.472;11.934;2023-04-06T07:09:13;27.80;;;2.40;;
4232;SDS011;2130;48.472;11.934;2023-04-06T07:12:02;28.17;;;2.63;;
4232;SDS011;2130;48.472;11.934;2023-04-06T07:14:50;29.10;;;2.60;;
4232;SDS011;2130;48.472;11.934;2023-04-06T07:17:39;29.53;;;2.97;;
4232;SDS011;2130;48.472;11.934;2023-04-06T07:20:30;29.07;;;2.90;;
4232;SDS011;2130;48.472;11.934;2023-04-06T07:23:18;29.07;;;3.00;;
4232;SDS011;2130;48.472;11.934;2023-04-06T07:26:06;30.97;;;3.17;;
4232;SDS011;2130;48.472;11.934;2023-04-06T07:28:56;28.37;;;2.10;;
4232;SDS011;2130;48.472;11.934;2023-04-06T07:31:45;29.27;;;2.97;;
4232;SDS011;2130;48.472;11.934;2023-04-06T07:34:35;28.53;;;2.30;;
4232;SDS011;2130;48.472;11.934;2023-04-06T07:37:25;30.03;;;2.70;;
4232;SDS011;2130;48.472;11.934;2023-04-06T07:40:13;28.27;;;2.00;;
4232;SDS011;2130;48.472;11.934;2023-04-06T07:43:02;28.87;;;2.43;;
4232;SDS011;2130;48.472;11.934;2023-04-06T07:45:51;29.20;;;2.57;;
4232;SDS011;2130;48.472;11.934;2023-04-06T07:48:40;29.07;;;2.37;;
4232;SDS011;2130;48.472;11.934;2023-04-06T07:51:29;29.47;;;2.63;;
4232;SDS011;2130;48.472;11.934;2023-04-06T07:54:19;29.87;;;3.10;;
4232;SDS011;2130;48.472;11.934;2023-04-06T07:57:07;30.33;;;3.40;;
4232;SDS011;2130;48.472;11.934;2023-04-06T07:59:56;35.63;;;2.50;;
4232;SDS011;2130;48.472;11.934;2023-04-06T08:02:44;29.20;;;2.93;;
4232;SDS011;2130;48.472;11.934;2023-04-06T08:05:33;29.37;;;2.13;;
4232;SDS011;2130;48.472;11.934;2023-04-06T08:08:21;28.57;;;2.30;;
4232;SDS011;2130;48.472;11.934;2023-04-06T08:11:11;29.33;;;2.70;;
4232;SDS011;2130;48.472;11.934;2023-04-06T08:13:59;29.37;;;2.97;;
4232;SDS011;2130;48.472;11.934;2023-04-06T08:16:48;29.23;;;2.40;;
4232;SDS011;2130;48.472;11.934;2023-04-06T08:19:36;30.20;;;3.03;;
4232;SDS011;2130;48.472;11.934;2023-04-06T08:22:24;30.93;;;3.03;;
4232;SDS011;2130;48.472;11.934;2023-04-06T08:25:13;26.97;;;2.57;;
4232;SDS011;2130;48.472;11.934;2023-04-06T08:28:03;28.43;;;3.10;;
4232;SDS011;2130;48.472;11.934;2023-04-06T08:30:51;28.10;;;2.30;;
4232;SDS011;2130;48.472;11.934;2023-04-06T08:33:40;29.27;;;2.67;;
4232;SDS011;2130;48.472;11.934;2023-04-06T08:36:28;26.23;;;3.00;;
4232;SDS011;2130;48.472;11.934;2023-04-06T08:39:16;28.83;;;3.40;;
4232;SDS011;2130;48.472;11.934;2023-04-06T08:42:12;29.43;;;2.73;;
4232;SDS011;2130;48.472;11.934;2023-04-06T08:45:08;27.63;;;2.60;;
4232;SDS011;2130;48.472;11.934;2023-04-06T08:47:57;28.00;;;3.07;;
4232;SDS011;2130;48.472;11.934;2023-04-06T08:50:48;24.03;;;2.50;;
4232;SDS011;2130;48.472;11.934;2023-04-06T08:53:37;22.90;;;2.40;;
4232;SDS011;2130;48.472;11.934;2023-04-06T08:56:27;23.93;;;3.00;;
4232;SDS011;2130;48.472;11.934;2023-04-06T08:59:15;24.10;;;2.10;;
4232;SDS011;2130;48.472;11.934;2023-04-06T09:02:05;24.40;;;2.80;;
4232;SDS011;2130;48.472;11.934;2023-04-06T09:04:54;24.60;;;2.70;;
4232;SDS011;2130;48.472;11.934;2023-04-06T09:07:43;22.10;;;2.50;;
4232;SDS011;2130;48.472;11.934;2023-04-06T09:10:32;23.10;;;2.47;;
4232;SDS011;2130;48.472;11.934;2023-04-06T09:13:21;22.43;;;2.63;;
4232;SDS011;2130;48.472;11.934;2023-04-06T09:16:09;21.60;;;2.70;;
4232;SDS011;2130;48.472;11.934;2023-04-06T09:19:03;20.60;;;2.27;;
4232;SDS011;2130;48.472;11.934;2023-04-06T09:22:00;20.23;;;2.17;;
4232;SDS011;2130;48.472;11.934;2023-04-06T09:24:50;20.53;;;2.73;;
4232;SDS011;2130;48.472;11.934;2023-04-06T09:27:38;20.33;;;2.33;;
4232;SDS011;2130;48.472;11.934;2023-04-06T09:30:27;20.07;;;2.20;;
4232;SDS011;2130;48.472;11.934;2023-04-06T09:33:21;19.93;;;2.60;;
4232;SDS011;2130;48.472;11.934;2023-04-06T09:36:11;20.10;;;2.73;;
4232;SDS011;2130;48.472;11.934;2023-04-06T09:39:03;18.53;;;2.17;;
4232;SDS011;2130;48.472;11.934;2023-04-06T09:41:52;18.60;;;2.20;;
4232;SDS011;2130;48.472;11.934;2023-04-06T09:44:42;20.20;;;2.23;;
4232;SDS011;2130;48.472;11.934;2023-04-06T09:47:31;18.83;;;2.07;;
4232;SDS011;2130;48.472;11.934;2023-04-06T09:50:20;18.07;;;2.30;;
4232;SDS011;2130;48.472;11.934;2023-04-06T09:53:10;16.50;;;2.17;;
4232;SDS011;2130;48.472;11.934;2023-04-06T09:55:59;17.80;;;2.27;;
4232;SDS011;2130;48.472;11.934;2023-04-06T09:58:51;17.83;;;2.43;;
4232;SDS011;2130;48.472;11.934;2023-04-06T10:01:45;18.13;;;1.97;;
4232;SDS011;2130;48.472;11.934;2023-04-06T10:04:36;16.37;;;1.90;;
4232;SDS011;2130;48.472;11.934;2023-04-06T10:07:27;16.63;;;1.97;;
4232;SDS011;2130;48.472;11.934;2023-04-06T10:10:17;16.57;;;2.27;;
4232;SDS011;2130;48.472;11.934;2023-04-06T10:13:05;16.50;;;2.00;;
4232;SDS011;2130;48.472;11.934;2023-04-06T10:15:54;17.60;;;2.03;;
4232;SDS011;2130;48.472;11.934;2023-04-06T10:18:44;17.37;;;2.33;;
4232;SDS011;2130;48.472;11.934;2023-04-06T10:21:34;17.97;;;2.43;;
4232;SDS011;2130;48.472;11.934;2023-04-06T10:24:24;19.50;;;2.57;;
4232;SDS011;2130;48.472;11.934;2023-04-06T10:27:14;17.30;;;2.23;;
4232;SDS011;2130;48.472;11.934;2023-04-06T10:30:03;17.40;;;2.03;;
4232;SDS011;2130;48.472;11.934;2023-04-06T10:32:52;17.40;;;2.60;;
4232;SDS011;2130;48.472;11.934;2023-04-06T10:35:41;18.30;;;3.13;;
4232;SDS011;2130;48.472;11.934;2023-04-06T10:38:33;18.00;;;2.30;;
4232;SDS011;2130;48.472;11.934;2023-04-06T10:41:31;20.40;;;3.90;;
4232;SDS011;2130;48.472;11.934;2023-04-06T10:44:22;16.30;;;2.27;;
4232;SDS011;2130;48.472;11.934;2023-04-06T10:47:16;20.10;;;2.70;;
4232;SDS011;2130;48.472;11.934;2023-04-06T10:50:06;19.13;;;2.73;;
4232;SDS011;2130;48.472;11.934;2023-04-06T10:52:58;17.30;;;2.27;;
4232;SDS011;2130;48.472;11.934;2023-04-06T10:55:47;17.70;;;2.10;;
4232;SDS011;2130;48.472;11.934;2023-04-06T10:58:37;16.77;;;2.17;;
4232;SDS011;2130;48.472;11.934;2023-04-06T11:01:28;18.80;;;2.00;;
4232;SDS011;2130;48.472;11.934;2023-04-06T11:04:16;16.70;;;1.70;;
4232;SDS011;2130;48.472;11.934;2023-04-06T11:07:05;18.27;;;2.57;;
4232;SDS011;2130;48.472;11.934;2023-04-06T11:09:54;17.47;;;2.37;;
4232;SDS011;2130;48.472;11.934;2023-04-06T11:13:02;17.30;;;2.20;;
4232;SDS011;2130;48.472;11.934;2023-04-06T11:15:52;17.63;;;1.97;;
4232;SDS011;2130;48.472;11.934;2023-04-06T11:18:52;16.93;;;1.90;;
4232;SDS011;2130;48.472;11.934;2023-04-06T11:21:42;17.93;;;2.10;;
4232;SDS011;2130;48.472;11.934;2023-04-06T11:24:34;17.47;;;2.10;;
4232;SDS011;2130;48.472;11.934;2023-04-06T11:27:22;17.77;;;1.83;;
4232;SDS011;2130;48.472;11.934;2023-04-06T11:30:12;17.43;;;2.10;;
4232;SDS011;2130;48.472;11.934;2023-04-06T11:33:01;18.57;;;2.00;;
4232;SDS011;2130;48.472;11.934;2023-04-06T11:35:51;18.50;;;2.40;;
4232;SDS011;2130;48.472;11.934;2023-04-06T11:38:40;20.93;;;2.17;;
4232;SDS011;2130;48.472;11.934;2023-04-06T11:41:30;18.10;;;2.33;;
4232;SDS011;2130;48.472;11.934;2023-04-06T11:44:28;17.90;;;1.93;;
4232;SDS011;2130;48.472;11.934;2023-04-06T11:47:17;17.93;;;2.10;;
4232;SDS011;2130;48.472;11.934;2023-04-06T11:50:05;18.50;;;2.50;;
4232;SDS011;2130;48.472;11.934;2023-04-06T11:52:59;18.83;;;2.73;;
4232;SDS011;2130;48.472;11.934;2023-04-06T11:55:49;17.40;;;2.10;;
4232;SDS011;2130;48.472;11.934;2023-04-06T11:58:38;17.80;;;1.67;;
4232;SDS011;2130;48.472;11.934;2023-04-06T12:01:28;18.27;;;1.80;;
4232;SDS011;2130;48.472;11.934;2023-04-06T12:04:22;19.20;;;1.80;;
4232;SDS011;2130;48.472;11.934;2023-04-06T12:07:11;18.00;;;2.03;;
4232;SDS011;2130;48.472;11.934;2023-04-06T12:10:01;18.37;;;2.43;;
4232;SDS011;2130;48.472;11.934;2023-04-06T12:12:50;16.90;;;1.70;;
4232;SDS011;2130;48.472;11.934;2023-04-06T12:15:39;18.00;;;2.00;;
4232;SDS011;2130;48.472;11.934;2023-04-06T12:18:27;18.70;;;2.37;;
4232;SDS011;2130;48.472;11.934;2023-04-06T12:21:16;18.10;;;2.53;;
4232;SDS011;2130;48.472;11.934;2023-04-06T12:24:04;19.30;;;2.50;;
4232;SDS011;2130;48.472;11.934;2023-04-06T12:26:54;17.90;;;2.17;;
4232;SDS011;2130;48.472;11.934;2023-04-06T12:29:55;17.70;;;2.03;;
4232;SDS011;2130;48.472;11.934;2023-04-06T12:32:43;18.40;;;2.00;;
4232;SDS011;2130;48.472;11.934;2023-04-06T12:35:35;18.30;;;1.90;;
4232;SDS011;2130;48.472;11.934;2023-04-06T12:38:24;19.30;;;2.37;;
4232;SDS011;2130;48.472;11.934;2023-04-06T12:41:13;17.97;;;1.90;;
4232;SDS011;2130;48.472;11.934;2023-04-06T12:44:03;17.87;;;2.03;;
4232;SDS011;2130;48.472;11.934;2023-04-06T12:46:51;17.87;;;2.40;;
4232;SDS011;2130;48.472;11.934;2023-04-06T12:49:40;17.90;;;1.87;;
4232;SDS011;2130;48.472;11.934;2023-04-06T12:52:29;19.73;;;2.37;;
4232;SDS011;2130;48.472;11.934;2023-04-06T12:55:18;17.30;;;1.70;;
4232;SDS011;2130;48.472;11.934;2023-04-06T12:58:07;17.30;;;1.70;;
4232;SDS011;2130;48.472;11.934;2023-04-06T13:00:57;18.53;;;2.30;;
4232;SDS011;2130;48.472;11.934;2023-04-06T13:03:49;18.00;;;2.27;;
4232;SDS011;2130;48.472;11.934;2023-04-06T13:06:38;18.10;;;1.90;;
4232;SDS011;2130;48.472;11.934;2023-04-06T13:09:26;18.13;;;2.10;;
4232;SDS011;2130;48.472;11.934;2023-04-06T13:12:15;16.93;;;1.90;;
4232;SDS011;2130;48.472;11.934;2023-04-06T13:15:04;17.40;;;2.40;;
4232;SDS011;2130;48.472;11.934;2023-04-06T13:17:54;18.90;;;2.53;;
4232;SDS011;2130;48.472;11.934;2023-04-06T13:20:43;17.70;;;2.03;;
4232;SDS011;2130;48.472;11.934;2023-04-06T13:23:31;18.00;;;2.17;;
4232;SDS011;2130;48.472;11.934;2023-04-06T13:26:20;19.23;;;2.00;;
4232;SDS011;2130;48.472;11.934;2023-04-06T13:29:08;17.70;;;1.77;;
4232;SDS011;2130;48.472;11.934;2023-04-06T13:31:56;17.83;;;2.40;;
4232;SDS011;2130;48.472;11.934;2023-04-06T13:34:46;18.27;;;2.23;;
4232;SDS011;2130;48.472;11.934;2023-04-06T13:37:35;16.83;;;2.27;;
4232;SDS011;2130;48.472;11.934;2023-04-06T13:40:24;17.90;;;1.80;;
4232;SDS011;2130;48.472;11.934;2023-04-06T13:43:12;17.63;;;2.20;;
4232;SDS011;2130;48.472;11.934;2023-04-06T13:46:01;16.83;;;1.77;;
4232;SDS011;2130;48.472;11.934;2023-04-06T13:48:50;18.63;;;2.63;;
4232;SDS011;2130;48.472;11.934;2023-04-06T13:51:39;18.17;;;2.40;;
4232;SDS011;2130;48.472;11.934;2023-04-06T13:54:28;17.57;;;2.17;;
4232;SDS011;2130;48.472;11.934;2023-04-06T13:57:16;18.00;;;1.70;;
4232;SDS011;2130;48.472;11.934;2023-04-06T14:00:05;18.40;;;2.40;;
4232;SDS011;2130;48.472;11.934;2023-04-06T14:02:56;18.40;;;2.10;;
4232;SDS011;2130;48.472;11.934;2023-04-06T14:05:45;17.70;;;1.80;;
4232;SDS011;2130;48.472;11.934;2023-04-06T14:08:35;16.67;;;1.87;;
4232;SDS011;2130;48.472;11.934;2023-04-06T14:11:23;16.67;;;1.80;;
4232;SDS011;2130;48.472;11.934;2023-04-06T14:14:12;17.10;;;2.23;;
4232;SDS011;2130;48.472;11.934;2023-04-06T14:17:01;16.67;;;1.93;;
4232;SDS011;2130;48.472;11.934;2023-04-06T14:19:50;16.97;;;2.20;;
4232;SDS011;2130;48.472;11.934;2023-04-06T14:22:39;16.57;;;2.10;;
4232;SDS011;2130;48.472;11.934;2023-04-06T14:25:30;16.30;;;2.10;;
4232;SDS011;2130;48.472;11.934;2023-04-06T14:28:20;19.00;;;2.30;;
4232;SDS011;2130;48.472;11.934;2023-04-06T14:31:09;17.83;;;1.90;;
4232;SDS011;2130;48.472;11.934;2023-04-06T14:34:00;18.60;;;2.30;;
4232;SDS011;2130;48.472;11.934;2023-04-06T14:36:49;16.93;;;2.27;;
4232;SDS011;2130;48.472;11.934;2023-04-06T14:39:37;16.80;;;2.00;;
4232;SDS011;2130;48.472;11.934;2023-04-06T14:42:27;17.20;;;1.97;;
4232;SDS011;2130;48.472;11.934;2023-04-06T14:45:15;18.30;;;2.93;;
4232;SDS011;2130;48.472;11.934;2023-04-06T14:48:06;16.30;;;1.90;;
4232;SDS011;2130;48.472;11.934;2023-04-06T14:50:58;18.20;;;2.33;;
4232;SDS011;2130;48.472;11.934;2023-04-06T14:53:47;15.70;;;1.77;;
4232;SDS011;2130;48.472;11.934;2023-04-06T14:56:35;14.30;;;1.90;;
4232;SDS011;2130;48.472;11.934;2023-04-06T14:59:26;14.83;;;2.00;;
4232;SDS011;2130;48.472;11.934;2023-04-06T15:02:20;14.50;;;1.73;;
4232;SDS011;2130;48.472;11.934;2023-04-06T15:05:09;16.10;;;2.00;;
4232;SDS011;2130;48.472;11.934;2023-04-06T15:07:58;13.80;;;1.67;;
4232;SDS011;2130;48.472;11.934;2023-04-06T15:10:46;13.23;;;1.80;;
4232;SDS011;2130;48.472;11.934;2023-04-06T15:13:35;13.43;;;2.30;;
4232;SDS011;2130;48.472;11.934;2023-04-06T15:16:24;13.73;;;2.20;;
4232;SDS011;2130;48.472;11.934;2023-04-06T15:19:13;14.10;;;2.20;;
4232;SDS011;2130;48.472;11.934;2023-04-06T15:22:02;13.57;;;2.00;;
4232;SDS011;2130;48.472;11.934;2023-04-06T15:24:50;15.40;;;2.63;;
4232;SDS011;2130;48.472;11.934;2023-04-06T15:27:38;12.23;;;2.07;;
4232;SDS011;2130;48.472;11.934;2023-04-06T15:30:27;14.27;;;2.30;;
4232;SDS011;2130;48.472;11.934;2023-04-06T15:33:17;15.03;;;2.83;;
4232;SDS011;2130;48.472;11.934;2023-04-06T15:36:12;14.13;;;2.07;;
4232;SDS011;2130;48.472;11.934;2023-04-06T15:39:10;14.00;;;2.20;;
4232;SDS011;2130;48.472;11.934;2023-04-06T15:41:59;14.57;;;2.10;;
4232;SDS011;2130;48.472;11.934;2023-04-06T15:44:48;14.70;;;2.20;;
4232;SDS011;2130;48.472;11.934;2023-04-06T15:47:36;13.70;;;2.00;;
4232;SDS011;2130;48.472;11.934;2023-04-06T15:50:26;14.80;;;2.13;;
4232;SDS011;2130;48.472;11.934;2023-04-06T15:53:15;14.23;;;2.50;;
4232;SDS011;2130;48.472;11.934;2023-04-06T15:56:04;13.60;;;1.77;;
4232;SDS011;2130;48.472;11.934;2023-04-06T15:58:54;13.43;;;1.90;;
4232;SDS011;2130;48.472;11.934;2023-04-06T16:01:42;14.20;;;1.90;;
4232;SDS011;2130;48.472;11.934;2023-04-06T16:04:31;13.27;;;1.87;;
4232;SDS011;2130;48.472;11.934;2023-04-06T16:07:21;14.40;;;2.13;;
4232;SDS011;2130;48.472;11.934;2023-04-06T16:10:10;13.87;;;1.90;;
4232;SDS011;2130;48.472;11.934;2023-04-06T16:12:58;14.60;;;2.30;;
4232;SDS011;2130;48.472;11.934;2023-04-06T16:15:48;14.33;;;2.10;;
4232;SDS011;2130;48.472;11.934;2023-04-06T16:18:46;13.17;;;1.80;;
4232;SDS011;2130;48.472;11.934;2023-04-06T16:21:34;14.40;;;2.00;;
4232;SDS011;2130;48.472;11.934;2023-04-06T16:24:24;14.73;;;2.23;;
4232;SDS011;2130;48.472;11.934;2023-04-06T16:27:12;14.03;;;2.30;;
4232;SDS011;2130;48.472;11.934;2023-04-06T16:30:01;14.83;;;2.17;;
4232;SDS011;2130;48.472;11.934;2023-04-06T16:32:50;15.33;;;2.43;;
4232;SDS011;2130;48.472;11.934;2023-04-06T16:35:41;14.90;;;2.00;;
4232;SDS011;2130;48.472;11.934;2023-04-06T16:38:31;16.40;;;2.30;;
4232;SDS011;2130;48.472;11.934;2023-04-06T16:41:23;16.73;;;2.23;;
4232;SDS011;2130;48.472;11.934;2023-04-06T16:44:13;16.00;;;2.13;;
4232;SDS011;2130;48.472;11.934;2023-04-06T16:47:02;16.00;;;2.10;;
4232;SDS011;2130;48.472;11.934;2023-04-06T16:49:51;14.90;;;1.97;;
4232;SDS011;2130;48.472;11.934;2023-04-06T16:52:39;15.40;;;2.30;;
4232;SDS011;2130;48.472;11.934;2023-04-06T16:55:28;16.47;;;2.30;;
4232;SDS011;2130;48.472;11.934;2023-04-06T16:58:18;16.30;;;2.40;;
4232;SDS011;2130;48.472;11.934;2023-04-06T17:01:06;16.20;;;2.17;;
4232;SDS011;2130;48.472;11.934;2023-04-06T17:03:55;16.90;;;2.00;;
4232;SDS011;2130;48.472;11.934;2023-04-06T17:06:44;15.63;;;2.10;;
4232;SDS011;2130;48.472;11.934;2023-04-06T17:09:32;17.00;;;2.10;;